This is the latest recevied weather packets stored in our database for station/object DB0HRH-10. If no packets are shown the sender has not sent any weather packets the latest 10 day(s).
| Time | Temp. | Humidity | Pressure | Rain* | Wind** | Luminosity | Snow |
|---|---|---|---|---|---|---|---|
| 1788139155 | 68° F | 76% | 766.8 mmHg | - | - | - | - |
| 1788138255 | 69° F | 74% | 766.6 mmHg | - | - | - | - |
| 1788137355 | 69° F | 71% | 766.6 mmHg | - | - | - | - |
| 1788136455 | 69° F | 72% | 766.6 mmHg | - | - | - | - |
| 1788135555 | 70° F | 71% | 766.3 mmHg | - | - | - | - |
| 1788134654 | 67° F | 80% | 766.8 mmHg | - | - | - | - |
| 1788133754 | 69° F | 75% | 766.9 mmHg | - | - | - | - |
| 1788132854 | 71° F | 67% | 765.9 mmHg | - | - | - | - |
| 1788131954 | 72° F | 57% | 765.8 mmHg | - | - | - | - |
| 1788131054 | 73° F | 54% | 765.8 mmHg | - | - | - | - |
| 1788130154 | 74° F | 49% | 765.2 mmHg | - | - | - | - |
| 1788129254 | 75° F | 49% | 765.1 mmHg | - | - | - | - |
| 1788128354 | 75° F | 49% | 765.3 mmHg | - | - | - | - |
| 1788127454 | 75° F | 48% | 765.4 mmHg | - | - | - | - |
| 1788126554 | 75° F | 48% | 765.4 mmHg | - | - | - | - |
| 1788125654 | 75° F | 49% | 765.5 mmHg | - | - | - | - |
| 1788124754 | 75° F | 49% | 765.6 mmHg | - | - | - | - |
| 1788123854 | 75° F | 48% | 765.6 mmHg | - | - | - | - |
| 1788122953 | 76° F | 47% | 765.7 mmHg | - | - | - | - |
| 1788122053 | 76° F | 46% | 765.6 mmHg | - | - | - | - |
| 1788121153 | 76° F | 46% | 765.7 mmHg | - | - | - | - |
| 1788120253 | 77° F | 45% | 765.7 mmHg | - | - | - | - |
| 1788119352 | 77° F | 44% | 765.7 mmHg | - | - | - | - |
| 1788118452 | 77° F | 44% | 765.7 mmHg | - | - | - | - |
| 1788117552 | 78° F | 44% | 765.7 mmHg | - | - | - | - |
* Rain since midnight (hover to see other rain measurements)
** Current wind speed in m/s (hover to see current wind gust speed)